Time;durP1;ratioP1;P1;durP2;ratioP2;P2;SDS_P1;SDS_P2;PMS_P1;PMS_P2;Temp;Humidity;BMP_temperature;BMP_pressure;BME280_temperature;BME280_humidity;BME280_pressure;Samples;Min_cycle;Max_cycle;Signal;HPM_P1;HPM_P2
2022/08/11 00:00:07;;;;;;;3.27;3.07;;;21.10;99.90;;;;;;5073063;28;20593;-70
2022/08/11 00:02:45;;;;;;;7.47;3.47;;;21.20;99.90;;;;;;5072710;28;20574;-70
2022/08/11 00:05:15;;;;;;;3.40;3.10;;;21.10;99.90;;;;;;5074797;28;20666;-70
2022/08/11 00:07:48;;;;;;;3.53;2.73;;;21.00;99.90;;;;;;5076192;28;20586;-71
2022/08/11 00:10:20;;;;;;;6.07;2.80;;;21.00;99.90;;;;;;5076548;28;21151;-70
2022/08/11 00:12:56;;;;;;;5.93;3.17;;;21.00;99.90;;;;;;5074811;28;20999;-70
2022/08/11 00:15:25;;;;;;;3.00;2.73;;;20.80;99.90;;;;;;5074837;28;20981;-70
2022/08/11 00:18:00;;;;;;;3.13;2.87;;;20.90;99.90;;;;;;5076083;28;20617;-70
2022/08/11 00:20:31;;;;;;;3.37;3.07;;;20.90;99.90;;;;;;5075358;28;20580;-70
2022/08/11 00:23:05;;;;;;;3.77;2.63;;;20.80;99.90;;;;;;5076076;28;20617;-70
2022/08/11 00:25:40;;;;;;;3.63;3.17;;;20.80;99.90;;;;;;5074450;28;21220;-70
2022/08/11 00:28:30;;;;;;;3.33;2.60;;;20.70;99.90;;;;;;5075105;28;20578;-70
2022/08/11 00:31:09;;;;;;;4.70;2.90;;;20.70;99.90;;;;;;5073621;28;20637;-70
2022/08/11 00:33:42;;;;;;;4.13;3.43;;;20.60;99.90;;;;;;5075090;28;20578;-70
2022/08/11 00:36:13;;;;;;;3.23;2.93;;;20.60;1.00;;;;;;5075058;28;20567;-70
2022/08/11 00:38:43;;;;;;;3.90;2.90;;;20.40;99.90;;;;;;5075294;28;20583;-70
2022/08/11 00:41:43;;;;;;;4.73;3.30;;;20.50;1.00;;;;;;5075931;28;20574;-70
2022/08/11 00:44:34;;;;;;;6.07;2.67;;;20.40;99.90;;;;;;5076142;28;20573;-70
2022/08/11 00:47:18;;;;;;;3.57;3.00;;;20.40;99.90;;;;;;5074694;28;21156;-70
2022/08/11 00:49:59;;;;;;;4.60;2.73;;;20.40;99.90;;;;;;5075006;28;20573;-70
2022/08/11 00:52:38;;;;;;;3.23;2.90;;;20.40;99.90;;;;;;5074997;28;20585;-70
2022/08/11 00:55:34;;;;;;;6.23;2.53;;;20.40;99.90;;;;;;5074924;28;20577;-70
2022/08/11 00:58:38;;;;;;;3.00;2.80;;;20.40;99.90;;;;;;5074823;28;20575;-70
2022/08/11 01:01:16;;;;;;;2.50;2.40;;;20.40;99.90;;;;;;5075046;28;20574;-70
2022/08/11 01:04:07;;;;;;;4.70;2.87;;;20.40;99.90;;;;;;5076108;28;20579;-70
2022/08/11 01:07:07;;;;;;;5.37;2.60;;;20.30;99.90;;;;;;5074322;28;20676;-70
2022/08/11 01:09:52;;;;;;;2.93;2.73;;;20.30;99.90;;;;;;5074395;28;20606;-70
2022/08/11 01:12:18;;;;;;;3.20;2.90;;;20.30;99.90;;;;;;5075567;28;20628;-70
2022/08/11 01:14:57;;;;;;;3.30;3.00;;;20.00;99.90;;;;;;5075273;28;20911;-71
2022/08/11 01:17:51;;;;;;;2.50;2.40;;;19.70;99.90;;;;;;5074810;28;20579;-70
2022/08/11 01:20:42;;;;;;;3.20;2.90;;;19.60;99.90;;;;;;5073819;28;20610;-70
2022/08/11 01:23:42;;;;;;;3.23;2.63;;;19.70;99.90;;;;;;5074420;28;20570;-70
2022/08/11 01:26:42;;;;;;;2.70;2.50;;;19.60;99.90;;;;;;5073884;28;20642;-70
2022/08/11 01:29:34;;;;;;;2.33;2.23;;;19.60;99.90;;;;;;5074193;28;20720;-70
2022/08/11 01:32:31;;;;;;;4.37;2.57;;;19.70;99.90;;;;;;5074107;28;20582;-70
2022/08/11 01:35:19;;;;;;;3.60;3.27;;;19.70;99.90;;;;;;5073821;28;20574;-70
2022/08/11 01:38:24;;;;;;;3.07;2.87;;;19.50;99.90;;;;;;5074501;28;20593;-70
2022/08/11 01:41:16;;;;;;;3.57;3.23;;;19.30;99.90;;;;;;5074403;28;20574;-69
2022/08/11 01:44:38;;;;;;;2.60;2.40;;;19.20;99.90;;;;;;5074456;28;20585;-69
2022/08/11 01:50:29;;;;;;;3.53;3.23;;;18.90;99.90;;;;;;5051718;28;20946;-69
2022/08/11 01:53:20;;;;;;;5.27;2.80;;;18.70;99.90;;;;;;5073458;28;20618;-70
2022/08/11 01:56:13;;;;;;;5.57;3.40;;;18.60;99.90;;;;;;5074397;28;20549;-69
2022/08/11 01:59:07;;;;;;;3.07;2.87;;;18.70;99.90;;;;;;5073632;28;20590;-70
2022/08/11 02:01:40;;;;;;;4.30;3.13;;;18.80;99.90;;;;;;5073761;28;20583;-70
2022/08/11 02:04:44;;;;;;;3.70;2.80;;;18.80;99.90;;;;;;5073635;28;20596;-70
2022/08/11 02:07:35;;;;;;;2.90;2.67;;;18.70;99.90;;;;;;5034514;28;20809;-71
2022/08/11 02:13:03;;;;;;;5.23;3.20;;;18.70;99.90;;;;;;5073634;28;20614;-70
2022/08/11 02:15:38;;;;;;;3.77;3.47;;;18.70;99.90;;;;;;5073575;28;20982;-70
2022/08/11 02:24:35;;;;;;;5.37;3.20;;;18.70;99.90;;;;;;5073800;28;21016;-71
2022/08/11 02:27:24;;;;;;;3.50;3.20;;;18.80;99.90;;;;;;5073091;28;20990;-71
2022/08/11 02:30:07;;;;;;;3.13;2.93;;;18.80;99.90;;;;;;5072018;28;20610;-70
2022/08/11 02:35:50;;;;;;;3.47;3.17;;;18.90;1.00;;;;;;5073753;28;20692;-71
2022/08/11 02:38:37;;;;;;;3.53;3.23;;;18.90;1.00;;;;;;5073567;28;20570;-70
2022/08/11 02:44:46;;;;;;;3.80;3.00;;;18.90;50.40;;;;;;5073278;28;20943;-70
2022/08/11 02:47:27;;;;;;;3.47;3.17;;;19.00;1.00;;;;;;5050510;28;20662;-71
2022/08/11 02:50:04;;;;;;;4.83;2.97;;;19.00;99.90;;;;;;5070799;28;20675;-70
2022/08/11 02:52:45;;;;;;;4.37;3.20;;;18.90;1.00;;;;;;5072685;28;21113;-70
2022/08/11 02:55:31;;;;;;;4.53;3.27;;;19.10;1.00;;;;;;5073149;28;20915;-71
2022/08/11 02:58:08;;;;;;;3.50;3.20;;;19.20;1.00;;;;;;5073417;28;20622;-70
2022/08/11 03:00:59;;;;;;;7.70;3.13;;;19.30;1.00;;;;;;5073324;28;20570;-71
2022/08/11 03:03:52;;;;;;;4.50;3.70;;;19.30;1.00;;;;;;5071843;28;20641;-70
2022/08/11 03:06:32;;;;;;;4.90;3.60;;;19.30;1.00;;;;;;5073019;28;20689;-71
2022/08/11 03:09:04;;;;;;;3.10;2.90;;;19.20;1.00;;;;;;5072872;28;20620;-70
2022/08/11 03:17:29;;;;;;;4.93;3.00;;;18.80;1.00;;;;;;5073044;28;20586;-70
2022/08/11 03:20:11;;;;;;;3.70;2.90;;;18.70;46.30;;;;;;5071553;28;20644;-70
2022/08/11 03:22:47;;;;;;;5.23;3.23;;;18.60;1.00;;;;;;5073353;28;20604;-70
2022/08/11 03:25:45;;;;;;;3.13;2.93;;;18.70;1.00;;;;;;5071322;28;20666;-70
2022/08/11 03:28:52;;;;;;;4.57;4.17;;;18.70;99.90;;;;;;5072948;28;21165;-70
2022/08/11 03:31:31;;;;;;;6.27;3.13;;;18.80;1.00;;;;;;5071501;28;20609;-71
2022/08/11 03:34:01;;;;;;;3.50;3.20;;;18.80;1.00;;;;;;5072688;28;20565;-71
2022/08/11 03:36:45;;;;;;;5.43;3.07;;;18.80;1.00;;;;;;5072701;28;20589;-71
2022/08/11 03:39:36;;;;;;;3.10;2.80;;;18.80;1.00;;;;;;5074015;28;20559;-71
2022/08/11 03:42:23;;;;;;;4.67;3.40;;;18.90;1.00;;;;;;5076705;28;20560;-71
2022/08/11 03:45:08;;;;;;;3.73;3.40;;;18.90;1.00;;;;;;5077374;28;20697;-71
2022/08/11 03:48:04;;;;;;;8.03;3.50;;;18.90;1.00;;;;;;5077588;28;20657;-71
2022/08/11 03:51:16;;;;;;;3.67;3.33;;;18.90;1.00;;;;;;5075684;28;20749;-71
2022/08/11 03:54:15;;;;;;;3.60;3.13;;;19.00;1.00;;;;;;5075539;28;20636;-71
2022/08/11 03:57:17;;;;;;;5.13;3.80;;;18.90;1.00;;;;;;5077081;28;20581;-70
2022/08/11 04:00:21;;;;;;;3.83;3.30;;;18.90;24.40;;;;;;5076632;28;20570;-70
2022/08/11 04:03:08;;;;;;;5.30;3.30;;;18.90;1.00;;;;;;5074817;28;20684;-70
2022/08/11 04:05:41;;;;;;;4.43;3.20;;;18.90;1.00;;;;;;5074625;28;20658;-71
2022/08/11 04:08:29;;;;;;;5.67;3.40;;;18.80;26.90;;;;;;5075762;28;20612;-70
2022/08/11 04:11:13;;;;;;;3.87;3.47;;;18.80;1.00;;;;;;5075790;28;20588;-70
2022/08/11 04:17:37;;;;;;;3.83;3.17;;;18.70;1.00;;;;;;5075702;28;20586;-71
2022/08/11 04:20:41;;;;;;;9.67;3.50;;;18.60;1.00;;;;;;5074175;28;20614;-71
2022/08/11 04:23:41;;;;;;;4.63;3.50;;;18.60;1.00;;;;;;5076383;28;20641;-70
2022/08/11 04:26:41;;;;;;;4.10;3.70;;;18.70;47.80;;;;;;5076013;28;20972;-71
2022/08/11 04:29:29;;;;;;;4.30;3.30;;;18.60;1.00;;;;;;5076220;28;20594;-71
2022/08/11 04:32:14;;;;;;;6.60;3.50;;;18.60;1.00;;;;;;5076405;28;20575;-71
2022/08/11 04:35:16;;;;;;;5.13;3.30;;;18.70;1.00;;;;;;5076487;28;20600;-71
2022/08/11 04:37:42;;;;;;;5.90;3.50;;;18.80;99.90;;;;;;5057381;28;20686;-71
2022/08/11 04:40:27;;;;;;;4.67;3.57;;;18.70;1.00;;;;;;5075984;28;20554;-71
2022/08/11 04:43:31;;;;;;;7.00;3.70;;;18.70;1.10;;;;;;5075040;28;21100;-71
2022/08/11 04:46:19;;;;;;;3.77;3.47;;;18.70;85.20;;;;;;5075211;28;20628;-71
2022/08/11 05:02:29;;;;;;;5.27;4.00;;;18.90;99.90;;;;;;5074659;28;20635;-71
2022/08/11 05:05:30;;;;;;;6.23;3.87;;;19.00;99.90;;;;;;5075822;28;21153;-71
2022/08/11 05:07:56;;;;;;;8.83;3.40;;;19.00;99.90;;;;;;5075569;28;20630;-71
2022/08/11 05:11:10;;;;;;;4.47;4.00;;;19.10;99.90;;;;;;5075044;28;20555;-71
2022/08/11 05:37:01;;;;;;;4.63;3.20;;;19.50;41.80;;;;;;5075066;28;21144;-70
2022/08/11 05:56:48;;;;;;;6.07;3.53;;;20.20;14.60;;;;;;5074196;28;20574;-70
2022/08/11 05:59:18;;;;;;;8.13;2.80;;;20.20;1.00;;;;;;5074369;28;20589;-70
2022/08/11 06:01:46;;;;;;;6.83;3.80;;;20.30;12.10;;;;;;5074377;28;20578;-72
2022/08/11 06:04:21;;;;;;;6.80;4.40;;;20.50;50.20;;;;;;5074330;28;20626;-72
2022/08/11 06:06:50;;;;;;;4.23;3.97;;;20.60;1.00;;;;;;5074261;28;20662;-71
2022/08/11 06:09:30;;;;;;;4.27;3.33;;;20.70;86.50;;;;;;5074081;28;20618;-70
2022/08/11 06:12:01;;;;;;;5.33;3.20;;;20.70;1.00;;;;;;5073414;28;20682;-70
2022/08/11 06:14:29;;;;;;;4.20;3.30;;;20.80;1.00;;;;;;5071925;28;21191;-71
2022/08/11 06:16:59;;;;;;;13.03;3.90;;;20.90;1.00;;;;;;5073299;28;20594;-71
2022/08/11 06:19:40;;;;;;;5.80;3.80;;;21.00;1.00;;;;;;5072978;28;20570;-71
2022/08/11 06:22:11;;;;;;;4.43;3.67;;;21.10;1.00;;;;;;5073085;28;20584;-71
2022/08/11 06:24:41;;;;;;;5.67;3.40;;;21.10;1.00;;;;;;5072976;28;20631;-71
2022/08/11 06:27:08;;;;;;;10.37;4.20;;;21.20;1.00;;;;;;5071769;28;20638;-70
2022/08/11 06:29:44;;;;;;;9.73;4.00;;;21.30;1.00;;;;;;5073005;28;20610;-70
2022/08/11 06:32:12;;;;;;;11.43;3.43;;;21.30;1.00;;;;;;5073358;28;20681;-72
2022/08/11 06:35:11;;;;;;;4.53;3.33;;;21.20;1.00;;;;;;5073194;28;20650;-71
2022/08/11 06:38:25;;;;;;;3.73;2.93;;;21.30;1.00;;;;;;5073574;28;20579;-71
2022/08/11 06:41:30;;;;;;;4.47;3.47;;;21.40;1.00;;;;;;5064577;28;20638;-71
2022/08/11 06:44:15;;;;;;;5.60;3.50;;;21.60;1.00;;;;;;5073033;28;20617;-71
2022/08/11 06:46:53;;;;;;;3.87;3.57;;;21.70;1.00;;;;;;5073510;28;20634;-71
2022/08/11 06:52:16;;;;;;;14.33;3.80;;;21.80;1.00;;;;;;5073092;28;20563;-71
2022/08/11 06:55:03;;;;;;;3.53;3.23;;;21.90;1.00;;;;;;5073293;28;20578;-72
2022/08/11 07:00:29;;;;;;;3.83;3.43;;;22.10;1.00;;;;;;5073390;28;20934;-71
2022/08/11 07:03:00;;;;;;;6.30;3.73;;;22.20;1.00;;;;;;5073362;28;20683;-71
2022/08/11 07:05:47;;;;;;;5.43;3.33;;;22.30;26.80;;;;;;5073456;28;20654;-73
2022/08/11 07:17:18;;;;;;;5.70;3.10;;;22.60;85.10;;;;;;5079548;28;20646;-70
2022/08/11 07:31:20;;;;;;;6.40;2.80;;;23.00;99.90;;;;;;5077141;28;20586;-71
2022/08/11 07:33:51;;;;;;;3.30;3.00;;;23.10;99.90;;;;;;5077139;28;20594;-71
2022/08/11 07:36:19;;;;;;;4.70;3.57;;;23.20;99.90;;;;;;5076863;28;20626;-71
2022/08/11 07:38:51;;;;;;;3.33;3.13;;;23.40;99.90;;;;;;5077301;28;20598;-71
2022/08/11 07:41:22;;;;;;;9.13;3.67;;;23.40;99.90;;;;;;5076945;28;20606;-71
2022/08/11 07:43:54;;;;;;;4.67;3.00;;;23.60;99.90;;;;;;5076945;28;20587;-71
2022/08/11 07:54:40;;;;;;;3.20;3.00;;;24.30;99.90;;;;;;5076538;28;20598;-71
2022/08/11 08:19:20;;;;;;;5.50;3.10;;;25.10;1.00;;;;;;5076153;28;20585;-71
2022/08/11 08:21:47;;;;;;;7.07;3.80;;;25.10;1.00;;;;;;5075793;28;20979;-71
2022/08/11 08:24:14;;;;;;;4.90;3.30;;;25.10;72.10;;;;;;5075431;28;20703;-71
2022/08/11 08:26:58;;;;;;;6.07;3.50;;;25.30;99.90;;;;;;5075504;28;20657;-71
2022/08/11 08:32:20;;;;;;;5.43;3.33;;;25.40;99.90;;;;;;5075773;28;20582;-71
2022/08/11 08:34:50;;;;;;;5.00;3.10;;;25.40;99.90;;;;;;5075874;28;20636;-71
2022/08/11 08:37:19;;;;;;;4.43;3.23;;;25.40;99.90;;;;;;5076002;28;20630;-71
2022/08/11 08:39:46;;;;;;;7.03;2.87;;;25.80;99.90;;;;;;5075732;28;20586;-71
2022/08/11 08:42:20;;;;;;;3.13;2.93;;;25.80;99.90;;;;;;5075123;28;20744;-71
2022/08/11 08:44:50;;;;;;;3.40;3.17;;;26.10;99.90;;;;;;5075495;28;20555;-71
2022/08/11 08:47:18;;;;;;;3.20;3.00;;;26.30;99.90;;;;;;5075717;28;21220;-71
2022/08/11 08:49:48;;;;;;;13.70;3.50;;;26.20;99.90;;;;;;5075597;28;20575;-72
2022/08/11 08:52:18;;;;;;;4.07;3.60;;;26.10;99.90;;;;;;5075262;28;20585;-72
2022/08/11 08:54:49;;;;;;;4.83;3.10;;;26.30;99.90;;;;;;5075494;28;20571;-71
2022/08/11 08:57:17;;;;;;;4.83;2.90;;;26.40;99.90;;;;;;5074166;28;21201;-70
2022/08/11 08:59:46;;;;;;;3.43;3.23;;;26.20;99.90;;;;;;5075462;28;20622;-74
2022/08/11 09:02:13;;;;;;;4.27;3.07;;;26.10;99.90;;;;;;5075804;28;20586;-74
2022/08/11 09:04:43;;;;;;;3.40;3.10;;;26.30;99.90;;;;;;5075351;28;20566;-74
2022/08/11 09:07:22;;;;;;;3.17;2.97;;;26.50;99.90;;;;;;5074862;28;21037;-73
2022/08/11 09:09:51;;;;;;;10.20;3.57;;;26.50;99.90;;;;;;5075202;28;20593;-73
2022/08/11 09:12:21;;;;;;;5.60;3.17;;;26.60;99.90;;;;;;5074919;28;20626;-73
2022/08/11 09:15:06;;;;;;;3.70;3.40;;;26.40;99.90;;;;;;5075181;28;20648;-74
2022/08/11 09:17:39;;;;;;;3.53;3.23;;;26.40;99.90;;;;;;5075187;28;20637;-74
2022/08/11 09:20:16;;;;;;;3.57;3.27;;;26.90;99.90;;;;;;5075103;28;20618;-74
2022/08/11 09:28:20;;;;;;;4.93;2.60;;;26.90;99.90;;;;;;5076275;28;20634;-74
2022/08/11 09:30:54;;;;;;;5.80;3.23;;;26.90;99.90;;;;;;5075735;28;20626;-74
2022/08/11 09:33:23;;;;;;;3.77;3.30;;;27.20;99.90;;;;;;5075568;28;20583;-73
2022/08/11 09:35:51;;;;;;;3.57;2.93;;;27.40;99.90;;;;;;5075221;28;21157;-75
2022/08/11 09:41:08;;;;;;;3.30;3.00;;;27.60;99.90;;;;;;5074270;28;20876;-73
2022/08/11 09:46:29;;;;;;;3.10;2.80;;;27.70;99.90;;;;;;5073702;28;20586;-73
2022/08/11 09:49:01;;;;;;;5.07;2.97;;;27.80;99.90;;;;;;5073758;28;20685;-73
2022/08/11 09:51:30;;;;;;;3.80;3.00;;;27.80;99.90;;;;;;5074622;28;20626;-73
2022/08/11 09:54:03;;;;;;;9.67;3.60;;;27.70;99.90;;;;;;5073923;28;20571;-73
2022/08/11 09:59:19;;;;;;;2.83;2.70;;;27.80;99.90;;;;;;5073647;28;20589;-73
2022/08/11 10:01:53;;;;;;;4.57;3.17;;;28.10;99.90;;;;;;5073745;28;20614;-73
2022/08/11 10:04:33;;;;;;;4.20;3.00;;;27.80;99.90;;;;;;5072459;28;20762;-73
2022/08/11 10:07:05;;;;;;;3.47;3.17;;;27.60;99.90;;;;;;5072088;28;20662;-72
2022/08/11 10:09:51;;;;;;;3.10;2.50;;;27.60;99.90;;;;;;5073276;28;20582;-72
2022/08/11 10:12:28;;;;;;;8.87;3.20;;;27.70;99.90;;;;;;5073608;28;20562;-72
2022/08/11 10:20:44;;;;;;;3.20;2.90;;;28.10;1.00;;;;;;5073091;28;21121;-72
2022/08/11 10:33:59;;;;;;;2.83;2.63;;;28.50;1.00;;;;;;5072884;28;20630;-72
2022/08/11 10:34:44;;;;;;;3.30;2.60;;;28.90;1.00;;;;;;5072866;28;20974;-73
2022/08/11 10:37:11;;;;;;;4.57;2.90;;;29.00;1.00;;;;;;5072882;28;20585;-72
2022/08/11 10:39:39;;;;;;;6.87;3.10;;;28.60;1.00;;;;;;5072760;28;20592;-72
2022/08/11 10:44:54;;;;;;;2.77;2.53;;;29.10;1.00;;;;;;5072801;28;20578;-72
2022/08/11 10:47:38;;;;;;;2.90;2.60;;;29.00;1.00;;;;;;5072618;28;20626;-73
2022/08/11 11:01:17;;;;;;;4.90;2.50;;;29.50;1.00;;;;;;5072734;28;20582;-72
2022/08/11 11:03:45;;;;;;;2.77;2.57;;;29.40;1.00;;;;;;5073082;28;20636;-73
2022/08/11 11:06:26;;;;;;;3.37;3.10;;;29.30;1.00;;;;;;5072536;28;20715;-73
2022/08/11 11:09:16;;;;;;;5.00;3.47;;;29.10;1.00;;;;;;5072481;28;20629;-73
2022/08/11 11:20:24;;;;;;;3.23;3.03;;;29.80;1.00;;;;;;5071554;28;21030;-72
2022/08/11 11:22:54;;;;;;;3.00;2.70;;;29.50;1.00;;;;;;5072655;28;20575;-73
2022/08/11 11:25:24;;;;;;;4.13;3.20;;;29.90;1.00;;;;;;5072685;28;20688;-72
2022/08/11 11:28:29;;;;;;;8.47;3.13;;;30.00;1.00;;;;;;5072921;28;20645;-72
2022/08/11 11:31:06;;;;;;;3.33;2.70;;;30.00;1.00;;;;;;5072197;28;20584;-72
2022/08/11 11:34:03;;;;;;;2.97;2.77;;;30.30;1.00;;;;;;5070880;28;20621;-72
2022/08/11 11:36:47;;;;;;;3.10;2.70;;;30.70;1.00;;;;;;5072605;28;20570;-73
2022/08/11 11:39:19;;;;;;;6.53;2.60;;;31.40;1.00;;;;;;5072755;28;20577;-73
2022/08/11 11:41:47;;;;;;;7.80;2.77;;;31.70;1.00;;;;;;5072775;28;20973;-71
2022/08/11 11:44:14;;;;;;;4.23;2.90;;;32.20;1.00;;;;;;5072365;28;20582;-73
2022/08/11 11:46:44;;;;;;;2.57;2.47;;;31.80;1.00;;;;;;5072373;28;21009;-73
2022/08/11 11:49:13;;;;;;;6.10;3.00;;;31.90;1.00;;;;;;5070754;28;20673;-73
2022/08/11 11:51:40;;;;;;;6.10;2.80;;;31.90;1.00;;;;;;5071992;28;20621;-73
2022/08/11 11:54:08;;;;;;;6.03;3.10;;;31.90;1.00;;;;;;5072021;28;20601;-73
2022/08/11 11:56:36;;;;;;;5.43;2.90;;;31.60;1.00;;;;;;5072059;28;20578;-73
2022/08/11 12:01:49;;;;;;;6.30;2.90;;;32.60;1.00;;;;;;5075959;28;20574;-73
2022/08/11 12:04:19;;;;;;;4.70;2.70;;;32.40;1.00;;;;;;5075873;28;20616;-72
2022/08/11 12:06:46;;;;;;;2.50;2.40;;;32.50;1.00;;;;;;5075547;28;20653;-72
2022/08/11 12:09:19;;;;;;;3.00;2.50;;;31.10;1.00;;;;;;5075679;28;20683;-72
2022/08/11 12:14:31;;;;;;;7.83;2.77;;;31.80;1.00;;;;;;5075438;28;20578;-72
2022/08/11 12:16:58;;;;;;;5.37;2.70;;;31.00;1.00;;;;;;5075781;28;20570;-72
2022/08/11 12:19:30;;;;;;;6.53;3.00;;;32.10;1.00;;;;;;5075734;28;20581;-72
2022/08/11 12:27:30;;;;;;;2.50;2.30;;;33.60;1.00;;;;;;5075237;28;20629;-72
2022/08/11 12:29:59;;;;;;;6.30;2.53;;;33.60;1.00;;;;;;5075392;28;20664;-72
2022/08/11 12:32:31;;;;;;;3.03;2.53;;;33.90;1.00;;;;;;5075278;28;20585;-72
2022/08/11 12:34:58;;;;;;;4.13;2.27;;;33.70;1.00;;;;;;5075403;28;20585;-71
2022/08/11 12:37:38;;;;;;;2.73;2.53;;;33.40;1.00;;;;;;5075481;28;20575;-71
2022/08/11 12:45:56;;;;;;;2.53;2.43;;;33.00;1.00;;;;;;5075166;28;20594;-71
2022/08/11 12:54:13;;;;;;;4.43;2.20;;;34.80;1.00;;;;;;5074823;28;20563;-71
2022/08/11 13:05:13;;;;;;;3.10;2.60;;;33.30;1.00;;;;;;5074426;28;20637;-71
2022/08/11 13:07:44;;;;;;;3.90;2.50;;;34.40;1.00;;;;;;5074359;28;21200;-71
2022/08/11 13:10:14;;;;;;;8.73;2.20;;;33.70;1.00;;;;;;5074609;28;21153;-71
2022/08/11 13:12:47;;;;;;;2.50;2.23;;;34.10;1.00;;;;;;5055414;28;20610;-72
2022/08/11 13:15:24;;;;;;;8.43;2.30;;;34.20;1.00;;;;;;5074174;28;20585;-72
2022/08/11 13:17:54;;;;;;;8.03;5.17;;;34.70;1.00;;;;;;5056651;28;20633;-72
2022/08/11 13:20:22;;;;;;;7.60;2.60;;;34.20;1.00;;;;;;5072878;28;20687;-72
2022/08/11 13:22:52;;;;;;;4.40;2.60;;;34.30;1.00;;;;;;5074457;28;20586;-72
2022/08/11 13:25:23;;;;;;;6.73;2.27;;;35.10;1.00;;;;;;5074030;28;20642;-72
2022/08/11 13:27:52;;;;;;;4.40;2.57;;;35.30;1.00;;;;;;5073995;28;21188;-72
2022/08/11 13:33:09;;;;;;;3.37;2.37;;;35.70;1.00;;;;;;5073970;28;20575;-72
2022/08/11 13:35:36;;;;;;;5.10;2.67;;;34.40;1.00;;;;;;5074012;28;20645;-72
2022/08/11 13:38:04;;;;;;;6.93;2.67;;;34.80;1.00;;;;;;5073196;28;20581;-72
2022/08/11 13:40:32;;;;;;;5.43;2.70;;;35.30;1.00;;;;;;5073802;28;20579;-72
2022/08/11 13:42:59;;;;;;;5.43;2.67;;;35.20;1.00;;;;;;5072552;28;20578;-72
2022/08/11 13:45:27;;;;;;;2.70;2.50;;;35.70;1.00;;;;;;5073428;28;20586;-72
2022/08/11 13:47:56;;;;;;;2.73;2.23;;;35.00;1.00;;;;;;5072073;28;20658;-72
2022/08/11 13:51:29;;;;;;;2.17;2.07;;;35.00;1.00;;;;;;5073918;28;20567;-72
2022/08/11 13:53:13;;;;;;;2.90;2.20;;;34.70;1.00;;;;;;5073766;28;20621;-72
2022/08/11 13:55:41;;;;;;;4.47;2.90;;;34.70;1.00;;;;;;5073589;28;20586;-71
2022/08/11 13:58:11;;;;;;;2.47;2.33;;;35.00;1.00;;;;;;5073937;28;20610;-73
2022/08/11 14:00:40;;;;;;;2.30;2.10;;;35.00;1.00;;;;;;5072200;28;20621;-71
2022/08/11 14:03:11;;;;;;;2.80;2.60;;;36.00;1.00;;;;;;5073700;28;20594;-71
2022/08/11 14:05:46;;;;;;;9.03;2.47;;;35.10;1.00;;;;;;5073185;28;20654;-71
2022/08/11 14:08:17;;;;;;;4.97;2.43;;;34.60;1.00;;;;;;5073278;28;20629;-71
2022/08/11 14:10:46;;;;;;;7.30;2.70;;;34.70;1.00;;;;;;5073652;28;20621;-71
2022/08/11 14:16:06;;;;;;;4.40;2.57;;;36.50;1.00;;;;;;5073469;28;20571;-71
2022/08/11 14:18:34;;;;;;;3.50;2.67;;;37.60;1.00;;;;;;5072104;28;20633;-71
2022/08/11 14:24:03;;;;;;;3.83;3.33;;;35.50;1.00;;;;;;5060724;28;20997;-71
2022/08/11 14:26:37;;;;;;;2.33;2.10;;;35.70;1.00;;;;;;5073065;28;20622;-72
2022/08/11 14:29:21;;;;;;;11.93;3.00;;;35.60;1.00;;;;;;5071927;28;20633;-71
2022/08/11 14:31:54;;;;;;;3.43;2.00;;;35.20;1.00;;;;;;5073288;28;20570;-71
2022/08/11 14:34:23;;;;;;;2.87;2.60;;;35.90;1.00;;;;;;5072998;28;20571;-71
2022/08/11 14:37:04;;;;;;;2.73;2.40;;;36.10;1.00;;;;;;5071817;28;21125;-71
2022/08/11 14:39:36;;;;;;;6.47;2.27;;;36.30;1.00;;;;;;5073113;28;20931;-71
2022/08/11 14:48:03;;;;;;;4.57;2.50;;;37.30;1.00;;;;;;5073344;28;20630;-72
2022/08/11 14:50:31;;;;;;;8.83;2.37;;;36.60;1.00;;;;;;5073133;28;20577;-72
2022/08/11 14:52:59;;;;;;;2.90;2.67;;;35.60;1.00;;;;;;5072891;28;20582;-72
2022/08/11 14:58:23;;;;;;;2.73;2.30;;;35.50;1.00;;;;;;5073401;28;20625;-72
2022/08/11 15:00:59;;;;;;;6.60;2.53;;;36.70;1.00;;;;;;5072675;28;20624;-72
2022/08/11 15:03:27;;;;;;;3.27;2.60;;;37.90;1.00;;;;;;5072600;28;20633;-72
2022/08/11 15:05:58;;;;;;;2.97;2.77;;;37.20;1.00;;;;;;5072433;28;20700;-72
2022/08/11 15:14:03;;;;;;;4.53;2.53;;;37.50;1.00;;;;;;5072525;28;20594;-72
2022/08/11 15:19:18;;;;;;;2.80;2.37;;;37.10;1.00;;;;;;5072792;28;20595;-72
2022/08/11 15:24:29;;;;;;;2.70;2.50;;;36.30;1.00;;;;;;5072273;28;21001;-72
2022/08/11 15:38:07;;;;;;;2.87;2.70;;;36.00;1.00;;;;;;5075031;28;20585;-72
2022/08/11 15:46:32;;;;;;;8.87;2.90;;;35.80;1.00;;;;;;5076377;28;20578;-72
2022/08/11 15:49:02;;;;;;;4.03;2.97;;;35.40;1.00;;;;;;5076227;28;20629;-72
2022/08/11 15:51:34;;;;;;;6.43;2.50;;;35.20;1.00;;;;;;5076228;28;20611;-72
2022/08/11 15:54:07;;;;;;;5.97;2.67;;;35.20;1.00;;;;;;5075901;28;20706;-72
2022/08/11 15:56:37;;;;;;;2.83;2.63;;;34.90;1.00;;;;;;5074534;28;20675;-72
2022/08/11 16:04:38;;;;;;;4.10;2.90;;;34.90;1.00;;;;;;5075797;28;20585;-72
2022/08/11 16:07:11;;;;;;;3.40;3.10;;;35.80;1.00;;;;;;5076006;28;20593;-72
2022/08/11 16:09:59;;;;;;;6.10;2.80;;;36.60;1.00;;;;;;5074126;28;20684;-71
2022/08/11 16:12:29;;;;;;;3.43;3.07;;;35.40;1.00;;;;;;5075487;28;21132;-71
2022/08/11 16:17:48;;;;;;;3.37;3.10;;;34.20;1.00;;;;;;5075476;28;20602;-71
2022/08/11 16:20:21;;;;;;;4.17;2.93;;;35.50;1.00;;;;;;5074083;28;21056;-71
2022/08/11 16:22:51;;;;;;;4.13;2.53;;;35.80;1.00;;;;;;5076116;28;20578;-71
2022/08/11 16:25:23;;;;;;;3.10;2.90;;;35.70;1.00;;;;;;5075553;28;20698;-71
2022/08/11 16:27:54;;;;;;;4.50;2.73;;;34.90;1.00;;;;;;5075306;28;20967;-71
2022/08/11 16:30:21;;;;;;;2.50;2.30;;;34.30;1.00;;;;;;5075048;28;20973;-71
2022/08/11 16:32:52;;;;;;;5.80;2.70;;;34.40;1.00;;;;;;5075208;28;20617;-71
2022/08/11 16:40:59;;;;;;;3.03;2.43;;;35.60;1.00;;;;;;5075614;28;20606;-71
2022/08/11 16:49:07;;;;;;;2.70;2.50;;;35.50;1.00;;;;;;5075238;28;20957;-71
2022/08/11 16:51:33;;;;;;;2.57;2.37;;;34.90;1.00;;;;;;5075106;28;20589;-71
2022/08/11 16:54:00;;;;;;;4.60;2.87;;;34.70;1.00;;;;;;5075085;28;20614;-71
2022/08/11 16:56:42;;;;;;;2.53;2.43;;;35.40;1.00;;;;;;5074391;28;20567;-71
2022/08/11 16:59:28;;;;;;;2.80;2.50;;;34.90;1.00;;;;;;5073729;28;20691;-71
2022/08/11 17:01:57;;;;;;;2.47;2.20;;;34.70;1.00;;;;;;5074805;28;20671;-71
2022/08/11 17:13:09;;;;;;;4.50;2.37;;;34.10;1.00;;;;;;5075308;28;20574;-71
2022/08/11 17:16:10;;;;;;;5.07;2.70;;;33.70;1.00;;;;;;5075062;28;21028;-71
2022/08/11 17:19:01;;;;;;;3.63;2.43;;;33.90;1.00;;;;;;5074793;28;20967;-71
2022/08/11 17:21:35;;;;;;;2.80;2.50;;;33.20;1.00;;;;;;5073256;28;20571;-71
2022/08/11 17:24:07;;;;;;;2.80;2.60;;;33.30;1.00;;;;;;5075425;28;20622;-72
2022/08/11 17:26:54;;;;;;;4.53;2.33;;;33.50;1.00;;;;;;5075581;28;20574;-71
2022/08/11 17:29:25;;;;;;;2.40;2.20;;;33.60;1.00;;;;;;5073349;28;20670;-71
2022/08/11 17:37:32;;;;;;;7.40;2.30;;;32.50;1.00;;;;;;5075180;28;20584;-71
2022/08/11 17:40:02;;;;;;;6.33;2.90;;;31.90;1.00;;;;;;5075323;28;20578;-72
2022/08/11 17:51:10;;;;;;;5.23;3.10;;;30.80;1.00;;;;;;5072300;28;20636;-71
2022/08/11 18:04:51;;;;;;;6.93;3.03;;;30.10;1.00;;;;;;5072707;28;20638;-74
